This is the latest recevied weather packets stored in our database for station/object KQ4KX. If no packets are shown the sender has not sent any weather packets the latest 10 day(s).
| Time | Temp. | Humidity | Pressure | Rain* | Wind** | Luminosity | Snow |
|---|---|---|---|---|---|---|---|
| 1777656926 | 31.11° C | 56% | 1012.2 hPa | 0 mm | - | - | - |
| 1777656596 | 31.67° C | 52% | 1012.1 hPa | 0 mm | - | - | - |
| 1777656296 | 32.22° C | 51% | 1012.2 hPa | 0 mm | - | - | - |
| 1777655966 | 32.22° C | 52% | 1012.2 hPa | 0 mm | - | - | - |
| 1777655666 | 32.22° C | 53% | 1012.3 hPa | 0 mm | - | - | - |
| 1777655338 | 31.67° C | 54% | 1012.3 hPa | 0 mm | - | - | - |
| 1777655037 | 31.67° C | 55% | 1012.4 hPa | 0 mm | - | - | - |
| 1777654407 | 31.67° C | 54% | 1012.4 hPa | 0 mm | - | - | - |
| 1777654106 | 31.67° C | 56% | 1012.4 hPa | 0 mm | - | - | - |
| 1777653807 | 31.67° C | 55% | 1012.5 hPa | 0 mm | - | - | - |
| 1777653207 | 30.56° C | 58% | 1012.7 hPa | 0 mm | - | - | - |
| 1777652906 | 31.11° C | 57% | 1012.8 hPa | 0 mm | - | - | - |
| 1777652306 | 31.11° C | 60% | 1012.9 hPa | 0 mm | - | - | - |
| 1777652006 | 31.11° C | 60% | 1012.9 hPa | 0 mm | - | - | - |
| 1777651707 | 31.11° C | 60% | 1013 hPa | 0 mm | - | - | - |
| 1777651406 | 31.11° C | 59% | 1013 hPa | 0 mm | - | - | - |
| 1777650806 | 30.56° C | 63% | 1013 hPa | 0 mm | - | - | - |
| 1777650506 | 30.56° C | 63% | 1013 hPa | 0 mm | - | - | - |
| 1777650206 | 30° C | 63% | 1013 hPa | 0 mm | - | - | - |
| 1777649606 | 30° C | 66% | 1013 hPa | 0 mm | - | - | - |
| 1777649306 | 30° C | 65% | 1013.1 hPa | 0 mm | - | - | - |
| 1777649006 | 30° C | 66% | 1013 hPa | 0 mm | - | - | - |
| 1777648676 | 30° C | 68% | 1013.1 hPa | 0 mm | - | - | - |
| 1777648376 | 29.44° C | 69% | 1013.2 hPa | 0 mm | - | - | - |
| 1777648077 | 28.89° C | 70% | 1013.2 hPa | 0 mm | - | - | - |
* Rain latest hour (hover to see other rain measurements)
** Current wind speed in m/s (hover to see current wind gust speed)